Etusivu
METAR-TAF:

METAR-TAF

Lentoasemat :

Helsinki-Vantaan lentoasema

Helsinki, Suomi

Leveyspiiri: 60-19N, Pituuspiiri: 024-58E, korkeus merenpinnasta: 51 m

Tämänhetkinen sää

Tämä raportti tehtiin 9 minuuttia sitten, kello 09.20 UTC
Tuuli 13 kn etelästä
Lämpötila 22°C
Kosteus 60%
Ilmanpaine 1019 hPa
Näkyvyys 10 km tai enemmän
Muutamia pilviä 2500 ft:n korkeudessa
Hajanaisia pilviä 20000 ft:n korkeudessa

METAR: EFHK 170920Z 19013KT 9999 FEW025 SCT200 22/14 Q1019 NOSIG

Aika: 12:29 (09:29 UTC)

Sääennuste

Tämä raportti tehtiin 52 minuuttia sitten, kello 08.37 UTC
Ennuste voimassa 17. päivästä klo 09 UTC - 18. päivään klo 09 UTC
Tuuli 13 kn etelästä
Näkyvyys 10 km tai enemmän
Muutamia pilviä 3000 ft:n korkeudessa
Hajanaisia pilviä 20000 ft:n korkeudessa

TAF: EFHK 170837Z 1709/1809 18013KT 9999 FEW030 SCT200

Säähavainnot ja -ennusteet yli 4000 lentoasemalta (METAR- ja TAF-raportit).

Käytössä olevat sääasemat on merkitty karttaan keltaisilla ja punaisilla pisteillä.

Aseta hiiri pisteen päälle nähdäksesi sääaseman nimen.

Klikkaa sitten nähdäksesi säähavainnot ja -ennusteet.

Kartan vaihtaminen: klikkaa mustalla rastilla varustettuja vihreitä pisteitä, niin voit zoomata sisään; viivalla varustettua vihreää pistettä, niin voit zoomata ulos tai vihreitä nuolia, niin pääset viereisille kartoille.


METAR-TAF: